Time;durP1;ratioP1;P1;durP2;ratioP2;P2;SDS_P1;SDS_P2;PMS_P1;PMS_P2;Temp;Humidity;BMP_temperature;BMP_pressure;BME280_temperature;BME280_humidity;BME280_pressure;Samples;Min_cycle;Max_cycle;Signal;HPM_P1;HPM_P2
2022/06/11 00:01:48;;;;;;;11.73;7.90;;;15.90;1.00;;;;;;5048975;28;20377;-59
2022/06/11 00:04:26;;;;;;;11.90;7.55;;;17.40;1.00;;;;;;5049739;28;20381;-60
2022/06/11 00:06:58;;;;;;;11.50;7.38;;;15.90;1.00;;;;;;5048754;28;20377;-59
2022/06/11 00:09:25;;;;;;;11.43;7.05;;;15.90;1.00;;;;;;5049663;28;20503;-59
2022/06/11 00:11:51;;;;;;;12.40;6.20;;;15.80;1.00;;;;;;5048492;28;20448;-61
2022/06/11 00:14:19;;;;;;;11.90;6.10;;;15.80;1.00;;;;;;5052538;28;20850;-59
2022/06/11 00:16:45;;;;;;;11.35;6.25;;;15.80;1.00;;;;;;5052852;28;20400;-59
2022/06/11 00:19:12;;;;;;;10.50;6.03;;;15.80;99.90;;;;;;5053577;28;20399;-60
2022/06/11 00:21:39;;;;;;;10.73;5.60;;;15.80;99.90;;;;;;5052750;28;20480;-59
2022/06/11 00:24:07;;;;;;;11.03;5.53;;;15.80;99.90;;;;;;5053411;28;20735;-59
2022/06/11 00:26:32;;;;;;;10.55;5.00;;;15.80;99.90;;;;;;5053113;28;20398;-54
2022/06/11 00:28:58;;;;;;;10.88;5.57;;;15.80;99.90;;;;;;5053126;28;20498;-59
2022/06/11 00:31:24;;;;;;;10.85;5.57;;;15.80;99.90;;;;;;5052994;28;20377;-60
2022/06/11 00:33:50;;;;;;;10.70;5.20;;;15.70;1.00;;;;;;5052351;28;20812;-59
2022/06/11 00:36:18;;;;;;;13.00;6.40;;;15.50;99.90;;;;;;5053381;28;20522;-59
2022/06/11 00:38:44;;;;;;;11.73;5.88;;;15.60;1.00;;;;;;5052436;28;20397;-59
2022/06/11 00:41:11;;;;;;;11.48;6.03;;;15.50;1.00;;;;;;5053219;28;20847;-59
2022/06/11 00:43:39;;;;;;;16.20;6.22;;;15.40;1.00;;;;;;5052131;28;20377;-56
2022/06/11 00:46:42;;;;;;;12.90;7.70;;;15.40;22.40;;;;;;5052702;28;20781;-59
2022/06/11 00:49:28;;;;;;;12.23;7.18;;;15.30;1.00;;;;;;5053203;28;20382;-60
2022/06/11 00:52:13;;;;;;;10.05;6.60;;;15.30;1.00;;;;;;5052194;28;20409;-60
2022/06/11 00:54:41;;;;;;;11.90;6.82;;;15.40;1.00;;;;;;5052380;28;20377;-61
2022/06/11 00:57:08;;;;;;;12.60;7.40;;;15.40;1.00;;;;;;5053005;28;20484;-62
2022/06/11 00:59:40;;;;;;;14.77;7.60;;;15.30;99.90;;;;;;5052701;28;20394;-56
2022/06/11 01:02:06;;;;;;;11.23;6.57;;;15.10;99.90;;;;;;5052753;28;20389;-59
2022/06/11 01:04:54;;;;;;;13.80;7.00;;;15.20;1.00;;;;;;5052552;28;20505;-57
2022/06/11 01:07:37;;;;;;;13.57;7.40;;;15.20;99.90;;;;;;5053001;28;20392;-62
2022/06/11 01:10:30;;;;;;;13.15;7.05;;;15.20;99.90;;;;;;5052906;28;20422;-63
2022/06/11 01:13:31;;;;;;;14.02;7.72;;;15.10;99.90;;;;;;5033905;28;20909;-60
2022/06/11 01:16:10;;;;;;;15.57;8.32;;;15.00;1.00;;;;;;5051937;28;20543;-62
2022/06/11 01:18:54;;;;;;;14.02;7.82;;;14.80;99.90;;;;;;5051924;28;20389;-56
2022/06/11 01:21:37;;;;;;;10.80;6.43;;;14.80;99.90;;;;;;5052360;28;20423;-59
2022/06/11 01:24:36;;;;;;;9.95;5.78;;;14.60;1.00;;;;;;5052060;28;20500;-59
2022/06/11 01:27:04;;;;;;;10.80;5.85;;;14.60;99.90;;;;;;5052243;28;20393;-60
2022/06/11 01:29:46;;;;;;;12.40;7.05;;;14.70;1.00;;;;;;5052077;28;20863;-60
2022/06/11 01:32:44;;;;;;;12.00;6.30;;;14.80;25.40;;;;;;5052257;28;20453;-62
2022/06/11 01:35:19;;;;;;;12.23;6.90;;;14.70;99.90;;;;;;5052196;28;20475;-62
2022/06/11 01:38:10;;;;;;;10.90;6.37;;;14.70;99.90;;;;;;5051175;28;20469;-57
2022/06/11 01:40:39;;;;;;;12.45;6.40;;;14.70;99.90;;;;;;5050127;28;20491;-53
2022/06/11 01:43:41;;;;;;;12.32;6.20;;;14.70;99.90;;;;;;5051248;28;20481;-61
2022/06/11 01:46:18;;;;;;;11.85;5.70;;;14.70;99.90;;;;;;5052295;28;20441;-61
2022/06/11 01:49:04;;;;;;;12.15;6.10;;;14.70;99.90;;;;;;5050897;28;20455;-61
2022/06/11 01:51:36;;;;;;;10.18;6.20;;;14.70;99.90;;;;;;5052128;28;20488;-59
2022/06/11 01:54:23;;;;;;;12.45;5.78;;;14.70;1.00;;;;;;5051462;28;20432;-59
2022/06/11 01:57:07;;;;;;;11.15;5.70;;;14.70;99.90;;;;;;5051035;28;20389;-59
2022/06/11 01:59:48;;;;;;;10.70;5.40;;;14.50;1.00;;;;;;5051548;28;20392;-58
2022/06/11 02:02:35;;;;;;;9.60;5.97;;;14.40;99.90;;;;;;5051606;28;20381;-59
2022/06/11 02:05:07;;;;;;;13.27;6.50;;;14.40;99.90;;;;;;5051086;28;20826;-58
2022/06/11 02:07:46;;;;;;;17.98;7.40;;;14.30;99.90;;;;;;5051289;28;20381;-58
2022/06/11 02:10:16;;;;;;;12.93;6.80;;;14.40;99.90;;;;;;5051468;28;20422;-57
2022/06/11 02:12:51;;;;;;;11.60;6.00;;;14.40;99.90;;;;;;5050358;28;20515;-59
2022/06/11 02:15:20;;;;;;;11.70;6.00;;;14.50;99.90;;;;;;5051081;28;20426;-61
2022/06/11 02:17:49;;;;;;;10.13;5.63;;;14.50;1.00;;;;;;5050647;28;20389;-61
2022/06/11 02:20:21;;;;;;;12.18;5.75;;;14.50;13.70;;;;;;5051298;28;20397;-62
2022/06/11 02:22:57;;;;;;;11.93;6.40;;;14.40;99.90;;;;;;5048952;28;20485;-59
2022/06/11 02:25:32;;;;;;;10.43;5.88;;;14.30;99.90;;;;;;5051249;28;20956;-59
2022/06/11 02:28:02;;;;;;;12.90;6.60;;;14.30;99.90;;;;;;5050585;28;20412;-60
2022/06/11 02:30:30;;;;;;;15.20;7.25;;;14.30;99.90;;;;;;5051289;28;20453;-59
2022/06/11 02:32:57;;;;;;;9.82;5.82;;;14.30;99.90;;;;;;5050074;28;20474;-59
2022/06/11 02:35:38;;;;;;;12.77;6.70;;;14.30;99.90;;;;;;5050466;28;20417;-58
2022/06/11 02:38:11;;;;;;;9.93;6.37;;;14.30;99.90;;;;;;5050912;28;20419;-59
2022/06/11 02:40:49;;;;;;;15.02;7.47;;;14.30;99.90;;;;;;5050553;28;20422;-53
2022/06/11 02:43:15;;;;;;;12.98;7.07;;;14.30;99.90;;;;;;5050583;28;20422;-59
2022/06/11 02:45:41;;;;;;;15.87;6.67;;;14.30;99.90;;;;;;5050086;28;20381;-57
2022/06/11 02:48:07;;;;;;;12.50;6.70;;;14.30;99.90;;;;;;5050717;28;20548;-57
2022/06/11 02:50:34;;;;;;;14.50;7.10;;;14.40;99.90;;;;;;5050800;28;20813;-58
2022/06/11 02:53:02;;;;;;;11.98;6.80;;;14.30;99.90;;;;;;5049663;28;20914;-59
2022/06/11 02:55:28;;;;;;;13.07;7.60;;;14.20;99.90;;;;;;5050437;28;20447;-59
2022/06/11 02:57:55;;;;;;;13.57;7.35;;;14.10;99.90;;;;;;5049616;28;20392;-58
2022/06/11 03:00:26;;;;;;;14.95;6.70;;;14.10;99.90;;;;;;5050484;28;20401;-58
2022/06/11 03:02:52;;;;;;;13.45;7.22;;;14.10;99.90;;;;;;5049761;28;20401;-58
2022/06/11 03:05:22;;;;;;;11.70;7.10;;;14.10;99.90;;;;;;5032853;28;20477;-58
2022/06/11 03:07:49;;;;;;;15.05;7.18;;;14.10;99.90;;;;;;5049824;28;20405;-59
2022/06/11 03:10:17;;;;;;;12.10;7.20;;;14.10;99.90;;;;;;5050268;28;20388;-58
2022/06/11 03:12:43;;;;;;;12.50;7.40;;;14.00;99.90;;;;;;5049347;28;20835;-58
2022/06/11 03:15:10;;;;;;;14.38;7.38;;;14.00;1.00;;;;;;5050249;28;20476;-58
2022/06/11 03:17:36;;;;;;;11.32;7.30;;;13.90;1.00;;;;;;5049430;28;20711;-53
2022/06/11 03:20:04;;;;;;;13.82;7.82;;;13.80;1.00;;;;;;5049719;28;20377;-57
2022/06/11 03:22:29;;;;;;;13.77;7.78;;;13.80;1.00;;;;;;5049704;28;20397;-59
2022/06/11 03:24:55;;;;;;;13.40;7.60;;;13.70;1.00;;;;;;5049207;28;21153;-58
2022/06/11 03:27:21;;;;;;;15.05;8.27;;;13.70;1.00;;;;;;5050189;28;20802;-58
2022/06/11 03:29:47;;;;;;;13.17;8.43;;;13.70;1.00;;;;;;5049188;28;20385;-58
2022/06/11 03:32:12;;;;;;;12.85;7.60;;;13.70;1.00;;;;;;5049677;28;20500;-58
2022/06/11 03:34:38;;;;;;;12.80;7.63;;;13.60;1.00;;;;;;5049330;28;20790;-53
2022/06/11 03:37:04;;;;;;;15.45;7.10;;;13.60;1.00;;;;;;5049593;28;20386;-57
2022/06/11 03:39:31;;;;;;;13.65;7.10;;;13.60;1.00;;;;;;5049945;28;20377;-59
2022/06/11 03:41:57;;;;;;;14.98;6.70;;;13.60;1.00;;;;;;5049024;28;20404;-58
2022/06/11 03:44:24;;;;;;;14.07;7.50;;;13.60;1.00;;;;;;5049753;28;20393;-59
2022/06/11 03:46:50;;;;;;;13.70;7.40;;;13.70;1.00;;;;;;5046903;28;20401;-58
2022/06/11 03:49:17;;;;;;;13.40;7.57;;;13.80;1.00;;;;;;5049338;28;21048;-59
2022/06/11 03:51:44;;;;;;;11.65;6.95;;;14.00;1.00;;;;;;5047858;28;20837;-58
2022/06/11 03:54:11;;;;;;;12.70;7.20;;;14.10;1.00;;;;;;5031712;28;20405;-59
2022/06/11 03:56:38;;;;;;;12.60;6.50;;;14.20;1.00;;;;;;5049590;28;20385;-55
2022/06/11 03:59:05;;;;;;;12.15;7.13;;;14.30;99.90;;;;;;5049340;28;20880;-59
2022/06/11 04:01:31;;;;;;;13.95;6.68;;;14.20;99.90;;;;;;5049526;28;20386;-59
2022/06/11 04:04:05;;;;;;;11.05;6.10;;;14.20;99.90;;;;;;5048684;28;20640;-59
2022/06/11 04:06:34;;;;;;;11.07;6.80;;;14.20;99.90;;;;;;5049565;28;20388;-57
2022/06/11 04:09:01;;;;;;;13.00;6.88;;;14.30;99.90;;;;;;5048473;28;21073;-59
2022/06/11 04:11:26;;;;;;;13.02;6.60;;;14.30;99.90;;;;;;5049280;28;20443;-60
2022/06/11 04:13:54;;;;;;;11.82;7.00;;;14.30;99.90;;;;;;5048776;28;20373;-60
2022/06/11 04:16:35;;;;;;;10.70;6.70;;;14.30;99.90;;;;;;5049015;28;20402;-59
2022/06/11 04:19:04;;;;;;;12.70;7.70;;;14.30;99.90;;;;;;5048511;28;20853;-59
2022/06/11 04:21:33;;;;;;;13.02;7.10;;;14.40;99.90;;;;;;5048814;28;20389;-59
2022/06/11 04:23:59;;;;;;;11.55;7.28;;;14.60;99.90;;;;;;5048195;28;20413;-59
2022/06/11 04:26:30;;;;;;;11.00;6.60;;;14.70;99.90;;;;;;5048747;28;20458;-59
2022/06/11 04:28:56;;;;;;;11.20;6.30;;;14.80;99.90;;;;;;5048188;28;20484;-60
2022/06/11 04:31:24;;;;;;;11.63;6.40;;;15.00;93.70;;;;;;5048987;28;20389;-60
2022/06/11 04:33:49;;;;;;;10.30;6.97;;;15.20;1.00;;;;;;5048157;28;20515;-60
2022/06/11 04:36:20;;;;;;;10.20;6.70;;;15.30;1.00;;;;;;5048324;28;20488;-59
2022/06/11 04:38:45;;;;;;;11.10;6.00;;;15.60;99.90;;;;;;5048389;28;20377;-59
2022/06/11 04:41:12;;;;;;;11.30;6.00;;;15.60;8.00;;;;;;5048899;28;20386;-60
2022/06/11 04:43:38;;;;;;;11.90;6.30;;;15.60;99.90;;;;;;5049262;28;20377;-56
2022/06/11 04:46:05;;;;;;;11.70;5.63;;;14.80;41.40;;;;;;5030742;28;20389;-60
2022/06/11 04:48:31;;;;;;;11.82;6.22;;;15.70;99.90;;;;;;5048734;28;20409;-59
2022/06/11 04:50:57;;;;;;;10.60;6.80;;;15.80;28.10;;;;;;5048031;28;20908;-59
2022/06/11 04:53:23;;;;;;;11.30;6.70;;;16.00;48.20;;;;;;5048657;28;20429;-58
2022/06/11 04:55:49;;;;;;;12.07;6.90;;;16.40;99.90;;;;;;5047793;28;20546;-59
2022/06/11 04:58:15;;;;;;;12.98;6.50;;;17.30;99.90;;;;;;5045333;28;20405;-57
2022/06/11 05:00:41;;;;;;;12.87;6.63;;;18.40;1.00;;;;;;5050785;28;20393;-55
2022/06/11 05:03:06;;;;;;;12.80;5.80;;;19.70;99.90;;;;;;5051889;28;20463;-60
2022/06/11 05:05:32;;;;;;;10.25;5.30;;;21.00;1.00;;;;;;5033577;28;20408;-59
2022/06/11 05:07:59;;;;;;;11.60;5.30;;;22.30;99.90;;;;;;5051204;28;20471;-60
2022/06/11 05:10:27;;;;;;;9.20;4.90;;;22.70;99.90;;;;;;5051622;28;20401;-61
2022/06/11 05:12:53;;;;;;;9.73;5.00;;;23.00;99.90;;;;;;5048306;28;20409;-58
2022/06/11 05:15:19;;;;;;;10.00;5.10;;;23.50;99.90;;;;;;5051667;28;20445;-58
2022/06/11 05:17:45;;;;;;;12.43;5.20;;;23.40;99.90;;;;;;5050340;28;20763;-58
2022/06/11 05:20:12;;;;;;;10.00;5.30;;;23.80;99.90;;;;;;5050684;28;20520;-58
2022/06/11 05:22:38;;;;;;;8.18;4.40;;;24.40;99.90;;;;;;5051207;28;20883;-59
2022/06/11 05:25:05;;;;;;;10.20;5.10;;;25.20;99.90;;;;;;5033014;28;20925;-61
2022/06/11 05:27:32;;;;;;;9.80;5.28;;;25.50;99.90;;;;;;5051266;28;20401;-61
2022/06/11 05:30:09;;;;;;;8.55;5.30;;;25.90;99.90;;;;;;5050982;28;20412;-61
2022/06/11 05:32:37;;;;;;;9.30;5.90;;;26.10;99.90;;;;;;5050416;28;20421;-61
2022/06/11 05:35:06;;;;;;;8.77;5.40;;;26.20;99.90;;;;;;5050733;28;20456;-61
2022/06/11 05:37:32;;;;;;;10.80;6.82;;;26.70;99.90;;;;;;5033013;28;20409;-61
2022/06/11 05:39:58;;;;;;;8.80;6.00;;;27.70;99.90;;;;;;5050378;28;20393;-57
2022/06/11 05:42:25;;;;;;;9.70;7.03;;;28.50;99.90;;;;;;5051621;28;20385;-59
2022/06/11 05:44:52;;;;;;;10.90;7.70;;;28.60;99.90;;;;;;5050142;28;20390;-61
2022/06/11 05:47:22;;;;;;;9.95;6.90;;;28.50;99.90;;;;;;5049808;28;20486;-60
2022/06/11 05:49:52;;;;;;;10.60;6.38;;;29.10;99.90;;;;;;5049146;28;20458;-61
2022/06/11 05:52:23;;;;;;;9.93;7.23;;;29.60;99.90;;;;;;5048583;28;20461;-55
2022/06/11 05:54:50;;;;;;;10.13;6.40;;;30.00;99.90;;;;;;5050022;28;20404;-56
2022/06/11 05:57:20;;;;;;;12.57;7.87;;;30.10;99.90;;;;;;5050764;28;20390;-56
2022/06/11 05:59:50;;;;;;;11.00;7.30;;;30.30;99.90;;;;;;5050345;28;20417;-58
2022/06/11 06:02:18;;;;;;;9.43;6.00;;;29.10;99.90;;;;;;5050366;28;20406;-55
2022/06/11 06:04:44;;;;;;;8.93;6.00;;;29.00;99.90;;;;;;5045497;28;20485;-55
2022/06/11 06:07:09;;;;;;;9.15;6.35;;;29.10;99.90;;;;;;5050995;28;20547;-55
2022/06/11 06:09:36;;;;;;;7.70;5.70;;;29.20;99.90;;;;;;5049953;28;20921;-55
2022/06/11 06:12:03;;;;;;;8.52;4.88;;;30.00;99.90;;;;;;5048595;28;20626;-56
2022/06/11 06:14:29;;;;;;;8.73;3.60;;;30.70;99.90;;;;;;5050838;28;20428;-61
2022/06/11 06:16:54;;;;;;;8.73;3.50;;;30.10;99.90;;;;;;5049489;28;20883;-58
2022/06/11 06:19:20;;;;;;;10.70;6.30;;;29.80;99.90;;;;;;5050847;28;20392;-59
2022/06/11 06:21:46;;;;;;;8.40;6.05;;;29.20;99.90;;;;;;5048044;28;20405;-59
2022/06/11 06:24:12;;;;;;;8.32;4.70;;;29.80;99.90;;;;;;5050169;28;20445;-59
2022/06/11 06:26:38;;;;;;;8.75;6.50;;;30.10;99.90;;;;;;5050061;28;20415;-60
2022/06/11 06:29:04;;;;;;;7.75;5.13;;;30.00;99.90;;;;;;5049709;28;20408;-59
2022/06/11 06:31:30;;;;;;;7.60;5.40;;;29.70;99.90;;;;;;5049320;28;20462;-58
2022/06/11 06:33:59;;;;;;;10.20;6.25;;;29.40;99.90;;;;;;5049384;28;20485;-55
2022/06/11 06:36:25;;;;;;;7.97;6.50;;;29.80;99.90;;;;;;5049925;28;20477;-55
2022/06/11 06:38:51;;;;;;;7.78;3.33;;;30.20;99.90;;;;;;5048891;28;20378;-56
2022/06/11 06:41:19;;;;;;;8.75;3.80;;;31.10;99.90;;;;;;5049142;28;20513;-55
2022/06/11 06:43:46;;;;;;;6.93;3.10;;;31.80;99.90;;;;;;5049689;28;21111;-56
2022/06/11 06:46:12;;;;;;;7.90;3.17;;;32.00;99.90;;;;;;5049559;28;20396;-56
2022/06/11 06:48:38;;;;;;;10.77;7.47;;;32.00;99.90;;;;;;5049909;28;20480;-55
2022/06/11 06:51:04;;;;;;;8.70;6.03;;;31.10;99.90;;;;;;5049089;28;20377;-56
2022/06/11 06:53:30;;;;;;;8.93;4.72;;;30.90;99.90;;;;;;5050194;28;20898;-56
2022/06/11 06:55:56;;;;;;;8.40;6.68;;;31.40;99.90;;;;;;5049497;28;20384;-56
2022/06/11 06:58:23;;;;;;;7.50;3.45;;;31.60;99.90;;;;;;5049781;28;20393;-55
2022/06/11 07:00:50;;;;;;;9.20;5.72;;;30.70;99.90;;;;;;5048891;28;20386;-55
2022/06/11 07:03:16;;;;;;;8.02;6.15;;;29.90;99.90;;;;;;5049825;28;20408;-55
2022/06/11 07:05:43;;;;;;;8.67;6.03;;;30.00;99.90;;;;;;5048726;28;20386;-56
2022/06/11 07:08:11;;;;;;;8.82;5.30;;;30.30;99.90;;;;;;5049484;28;20392;-56
2022/06/11 07:10:37;;;;;;;8.70;3.40;;;31.20;99.90;;;;;;5049812;28;20409;-55
2022/06/11 07:13:03;;;;;;;8.00;3.30;;;31.80;99.90;;;;;;5061143;28;20395;-56
2022/06/11 07:15:29;;;;;;;8.33;3.90;;;31.70;99.90;;;;;;5049872;28;20409;-55
2022/06/11 07:18:05;;;;;;;8.65;4.10;;;31.80;99.90;;;;;;5045907;28;20388;-56
2022/06/11 07:20:34;;;;;;;7.43;2.88;;;32.20;99.90;;;;;;5049713;28;20486;-56
2022/06/11 07:23:02;;;;;;;8.65;7.25;;;32.90;99.90;;;;;;5047320;28;20421;-56
2022/06/11 07:25:28;;;;;;;8.60;5.50;;;32.80;99.90;;;;;;5042269;28;20974;-55
2022/06/11 07:28:08;;;;;;;8.38;6.25;;;32.60;99.90;;;;;;5047980;28;20408;-56
2022/06/11 07:30:37;;;;;;;11.63;6.15;;;32.20;99.90;;;;;;5042428;28;20405;-55
2022/06/11 07:33:09;;;;;;;10.82;7.30;;;31.70;99.90;;;;;;5044496;28;20577;-56
2022/06/11 07:35:36;;;;;;;9.10;6.85;;;32.10;99.90;;;;;;5040256;28;20381;-56
2022/06/11 07:38:04;;;;;;;9.45;6.15;;;32.10;99.90;;;;;;5047248;28;20440;-56
2022/06/11 07:40:31;;;;;;;8.63;5.50;;;32.90;99.90;;;;;;5045841;28;20398;-56
2022/06/11 07:42:57;;;;;;;11.07;7.65;;;33.30;99.90;;;;;;5040770;28;20402;-56
2022/06/11 07:45:22;;;;;;;7.25;3.10;;;33.30;99.90;;;;;;5032402;28;20447;-56
2022/06/11 07:47:54;;;;;;;6.50;3.00;;;33.50;99.90;;;;;;5044213;28;20393;-56
2022/06/11 07:50:22;;;;;;;9.10;3.17;;;33.50;99.90;;;;;;5049506;28;20381;-56
2022/06/11 07:52:48;;;;;;;7.13;2.80;;;33.10;99.90;;;;;;5046229;28;20500;-56
2022/06/11 07:55:15;;;;;;;10.68;3.00;;;32.70;99.90;;;;;;5048210;28;20386;-56
2022/06/11 07:57:41;;;;;;;8.27;2.85;;;33.10;99.90;;;;;;5048460;28;20396;-56
2022/06/11 08:00:11;;;;;;;9.63;3.50;;;34.20;99.90;;;;;;5048618;28;20427;-56
2022/06/11 08:02:38;;;;;;;8.07;3.20;;;35.00;99.90;;;;;;5048783;28;20492;-56
2022/06/11 08:05:05;;;;;;;8.45;6.50;;;34.40;99.90;;;;;;5046033;28;20464;-56
2022/06/11 08:07:30;;;;;;;8.20;6.45;;;34.30;99.90;;;;;;5047996;28;20527;-56
2022/06/11 08:09:58;;;;;;;7.43;2.90;;;34.10;99.90;;;;;;5047748;28;20464;-56
2022/06/11 08:12:25;;;;;;;7.88;3.72;;;34.10;99.90;;;;;;5048986;28;20951;-56
2022/06/11 08:14:50;;;;;;;11.30;6.40;;;34.80;99.90;;;;;;5048046;28;20396;-56
2022/06/11 08:17:16;;;;;;;7.00;2.70;;;35.00;99.90;;;;;;5049083;28;20390;-56
2022/06/11 08:19:42;;;;;;;9.80;3.20;;;35.50;99.90;;;;;;5048640;28;20490;-56
2022/06/11 08:22:07;;;;;;;7.10;2.93;;;35.50;99.90;;;;;;5048242;28;20393;-56
2022/06/11 08:24:33;;;;;;;8.23;2.70;;;35.40;99.90;;;;;;5048801;28;20413;-56
2022/06/11 08:26:58;;;;;;;7.70;2.80;;;36.10;99.90;;;;;;5047786;28;20763;-56
2022/06/11 08:29:24;;;;;;;8.80;7.20;;;35.80;99.90;;;;;;5048734;28;20389;-56
2022/06/11 08:31:50;;;;;;;11.13;7.83;;;35.80;99.90;;;;;;5048199;28;20448;-57
2022/06/11 08:34:16;;;;;;;11.98;3.42;;;36.10;99.90;;;;;;5049701;28;20404;-57
2022/06/11 08:36:42;;;;;;;9.03;6.70;;;36.80;99.90;;;;;;5052830;28;20381;-56
2022/06/11 08:39:07;;;;;;;8.90;4.90;;;36.50;99.90;;;;;;5052283;28;20393;-56
2022/06/11 08:41:38;;;;;;;10.68;4.95;;;35.80;99.90;;;;;;5053190;28;20468;-56
2022/06/11 08:44:10;;;;;;;10.75;5.93;;;36.50;99.90;;;;;;5051997;28;20500;-56
2022/06/11 08:46:40;;;;;;;9.25;7.70;;;36.40;99.90;;;;;;5052816;28;20381;-56
2022/06/11 08:49:16;;;;;;;9.82;7.50;;;36.50;99.90;;;;;;5051871;28;20758;-57
2022/06/11 08:51:49;;;;;;;9.55;2.90;;;37.50;99.90;;;;;;5052346;28;20429;-56
2022/06/11 08:54:22;;;;;;;9.90;3.40;;;37.70;99.90;;;;;;5052274;28;20405;-57
2022/06/11 08:57:18;;;;;;;7.28;2.50;;;36.90;99.90;;;;;;5051960;28;20430;-57
2022/06/11 09:00:03;;;;;;;7.75;6.25;;;36.60;99.90;;;;;;5051709;28;21113;-56
2022/06/11 09:02:56;;;;;;;8.30;7.37;;;36.00;99.90;;;;;;5052285;28;20539;-56
2022/06/11 09:05:40;;;;;;;9.38;8.10;;;35.80;99.90;;;;;;5052561;28;20460;-56
2022/06/11 09:08:12;;;;;;;8.87;6.93;;;34.80;99.90;;;;;;5051266;28;20389;-56
2022/06/11 09:10:52;;;;;;;8.38;5.60;;;34.60;99.90;;;;;;5052624;28;20385;-56
2022/06/11 09:13:27;;;;;;;8.25;5.38;;;34.70;99.90;;;;;;5051840;28;20508;-56
2022/06/11 09:16:12;;;;;;;9.70;5.70;;;36.00;99.90;;;;;;5051653;28;20405;-57
2022/06/11 09:18:56;;;;;;;8.13;2.58;;;36.50;99.90;;;;;;5052127;28;20484;-56
2022/06/11 09:21:46;;;;;;;7.80;2.97;;;36.20;99.90;;;;;;5051952;28;20392;-57
2022/06/11 09:24:15;;;;;;;6.80;2.20;;;37.20;99.90;;;;;;5051718;28;20499;-57
2022/06/11 09:26:53;;;;;;;8.27;2.90;;;38.50;99.90;;;;;;5052304;28;20419;-57
2022/06/11 09:29:28;;;;;;;8.20;4.30;;;39.20;99.90;;;;;;5052468;28;20460;-57
2022/06/11 09:32:03;;;;;;;7.45;2.70;;;39.00;99.90;;;;;;5051001;28;20416;-57
2022/06/11 09:34:42;;;;;;;7.45;2.78;;;39.20;99.90;;;;;;5052094;28;20396;-57
2022/06/11 09:37:07;;;;;;;6.70;2.20;;;38.80;99.90;;;;;;5050304;28;20420;-57
2022/06/11 09:39:52;;;;;;;9.30;2.80;;;38.40;99.90;;;;;;5047258;28;20879;-56
2022/06/11 09:42:26;;;;;;;11.00;7.53;;;37.00;99.90;;;;;;5050979;28;20429;-57
2022/06/11 09:45:00;;;;;;;8.55;3.42;;;35.80;99.90;;;;;;5050030;28;20393;-56
2022/06/11 09:47:44;;;;;;;9.10;2.83;;;36.30;99.90;;;;;;5049339;28;20378;-57
2022/06/11 09:50:45;;;;;;;6.85;2.20;;;37.80;99.90;;;;;;5049132;28;20397;-57
2022/06/11 09:53:49;;;;;;;8.25;2.40;;;37.80;99.90;;;;;;5049542;28;20513;-57
2022/06/11 09:56:42;;;;;;;6.57;2.55;;;37.70;99.90;;;;;;5050657;28;20554;-56
2022/06/11 09:59:23;;;;;;;13.25;11.93;;;36.60;99.90;;;;;;5050727;28;20396;-56
2022/06/11 10:02:21;;;;;;;8.40;6.10;;;35.00;99.90;;;;;;5050636;28;20469;-56
2022/06/11 10:04:48;;;;;;;11.15;6.60;;;34.90;99.90;;;;;;5051022;28;20444;-57
2022/06/11 10:07:35;;;;;;;9.15;5.60;;;35.20;99.90;;;;;;5051454;28;20488;-56
2022/06/11 10:10:12;;;;;;;11.27;6.80;;;34.70;99.90;;;;;;5050377;28;20393;-57
2022/06/11 10:12:48;;;;;;;9.40;6.60;;;34.80;99.90;;;;;;5049525;28;20444;-56
2022/06/11 10:15:33;;;;;;;11.27;7.50;;;35.60;99.90;;;;;;5051268;28;20420;-56
2022/06/11 10:18:10;;;;;;;8.43;7.53;;;34.10;99.90;;;;;;5051485;28;20451;-56
2022/06/11 10:20:48;;;;;;;10.18;7.00;;;33.30;99.90;;;;;;5047026;28;20482;-56
2022/06/11 10:23:45;;;;;;;9.82;5.85;;;33.60;99.90;;;;;;5048387;28;20412;-56
2022/06/11 10:26:22;;;;;;;8.43;6.38;;;34.00;99.90;;;;;;5048541;28;20416;-56
2022/06/11 10:29:25;;;;;;;9.23;6.30;;;34.00;99.90;;;;;;5050344;28;20484;-56
2022/06/11 10:32:01;;;;;;;9.70;6.13;;;34.10;99.90;;;;;;5049086;28;20478;-56
2022/06/11 10:34:29;;;;;;;8.70;7.03;;;33.40;99.90;;;;;;5050509;28;20447;-56
2022/06/11 10:37:01;;;;;;;12.20;7.30;;;32.50;99.90;;;;;;5049017;28;20408;-55
2022/06/11 10:39:48;;;;;;;9.57;7.20;;;32.50;99.90;;;;;;5046615;28;20839;-56
2022/06/11 10:42:16;;;;;;;10.80;6.97;;;32.20;99.90;;;;;;5049605;28;20747;-56
2022/06/11 10:44:50;;;;;;;9.18;6.97;;;32.00;99.90;;;;;;5049510;28;20925;-55
2022/06/11 10:47:41;;;;;;;9.90;7.03;;;31.10;99.90;;;;;;5050635;28;20385;-55
2022/06/11 10:50:09;;;;;;;10.60;6.70;;;31.10;99.90;;;;;;5048762;28;20479;-56
2022/06/11 10:53:01;;;;;;;12.43;7.28;;;31.20;99.90;;;;;;5051423;28;20513;-56
2022/06/11 10:55:51;;;;;;;9.20;5.80;;;30.80;99.90;;;;;;5050482;28;20389;-56
2022/06/11 10:58:56;;;;;;;9.15;6.40;;;30.80;99.90;;;;;;5048838;28;20401;-55
2022/06/11 11:01:31;;;;;;;9.00;6.70;;;30.80;99.90;;;;;;5048103;28;20843;-56
2022/06/11 11:04:24;;;;;;;8.27;6.10;;;30.40;99.90;;;;;;5048731;28;20485;-56
2022/06/11 11:07:14;;;;;;;8.50;6.70;;;29.50;99.90;;;;;;5048884;28;20428;-56
2022/06/11 11:09:40;;;;;;;7.70;5.40;;;29.30;99.90;;;;;;5049819;28;20834;-56
2022/06/11 11:12:16;;;;;;;8.60;5.20;;;30.00;99.90;;;;;;5049364;28;20426;-56
2022/06/11 11:14:44;;;;;;;9.20;5.38;;;30.00;99.90;;;;;;5050215;28;20739;-56
2022/06/11 11:17:31;;;;;;;8.00;6.27;;;30.40;99.90;;;;;;5049582;28;20408;-56
2022/06/11 11:20:32;;;;;;;8.52;5.40;;;30.10;99.90;;;;;;5049528;28;20469;-56
2022/06/11 11:23:04;;;;;;;7.90;6.32;;;29.30;99.90;;;;;;5049403;28;20416;-56
2022/06/11 11:25:47;;;;;;;9.45;6.20;;;29.30;99.90;;;;;;5031938;28;20428;-56
2022/06/11 11:28:22;;;;;;;9.17;6.40;;;29.70;99.90;;;;;;5049559;28;20386;-56
2022/06/11 11:30:57;;;;;;;10.00;6.00;;;29.20;99.90;;;;;;5049278;28;20460;-56
2022/06/11 11:33:27;;;;;;;8.82;5.75;;;29.20;99.90;;;;;;5049788;28;20409;-56
2022/06/11 11:36:09;;;;;;;8.38;6.50;;;28.90;99.90;;;;;;5048962;28;20377;-56
2022/06/11 11:38:35;;;;;;;8.38;5.88;;;29.20;99.90;;;;;;5049277;28;20389;-56
2022/06/11 11:41:02;;;;;;;8.00;6.50;;;29.40;99.90;;;;;;5048530;28;20757;-56
2022/06/11 11:43:42;;;;;;;8.10;6.40;;;29.90;99.90;;;;;;5049178;28;20385;-56
2022/06/11 11:46:14;;;;;;;7.78;6.45;;;30.00;99.90;;;;;;5048467;28;20369;-56
2022/06/11 11:48:48;;;;;;;9.25;6.50;;;30.30;99.90;;;;;;5049545;28;20431;-56
2022/06/11 11:51:32;;;;;;;10.23;6.57;;;30.30;99.90;;;;;;5049420;28;20382;-56
2022/06/11 11:54:02;;;;;;;8.32;6.50;;;29.70;99.90;;;;;;5048950;28;20469;-56
2022/06/11 11:56:34;;;;;;;8.27;6.10;;;29.20;99.90;;;;;;5031756;28;20829;-56
2022/06/11 11:59:04;;;;;;;8.70;6.82;;;29.10;99.90;;;;;;5048623;28;20400;-57
2022/06/11 12:01:32;;;;;;;8.98;6.60;;;29.10;99.90;;;;;;5049132;28;20386;-56
2022/06/11 12:04:00;;;;;;;10.90;6.43;;;29.50;99.90;;;;;;5048652;28;20417;-56
2022/06/11 12:06:34;;;;;;;8.05;6.00;;;30.00;99.90;;;;;;5049591;28;20385;-56
2022/06/11 12:09:02;;;;;;;13.20;5.80;;;30.10;99.90;;;;;;5047676;28;20485;-56
2022/06/11 12:11:28;;;;;;;9.80;5.82;;;29.80;99.90;;;;;;5049168;28;20405;-56
2022/06/11 12:14:16;;;;;;;8.80;5.85;;;30.00;99.90;;;;;;5048259;28;20477;-56
2022/06/11 12:16:51;;;;;;;8.88;6.20;;;30.40;99.90;;;;;;5048801;28;20508;-56
2022/06/11 12:19:17;;;;;;;7.35;4.78;;;30.50;99.90;;;;;;5049042;28;20413;-56
2022/06/11 12:21:46;;;;;;;7.80;6.07;;;30.50;99.90;;;;;;5048859;28;20412;-56
2022/06/11 12:24:17;;;;;;;8.73;6.35;;;30.40;99.90;;;;;;5030535;28;20925;-56
2022/06/11 12:26:51;;;;;;;9.15;4.88;;;30.50;99.90;;;;;;5047083;28;20398;-56
2022/06/11 12:29:38;;;;;;;7.35;5.80;;;30.60;99.90;;;;;;5048052;28;20412;-56
2022/06/11 12:32:26;;;;;;;8.00;5.20;;;30.30;99.90;;;;;;5047110;28;20413;-56
2022/06/11 12:34:52;;;;;;;8.90;5.60;;;30.70;99.90;;;;;;5047218;28;20389;-56
2022/06/11 12:37:34;;;;;;;7.85;6.07;;;30.60;99.90;;;;;;5048600;28;20684;-56
2022/06/11 12:40:25;;;;;;;9.40;5.93;;;29.90;99.90;;;;;;5048197;28;20413;-56
2022/06/11 12:43:00;;;;;;;8.32;6.18;;;29.50;99.90;;;;;;5047939;28;20400;-56
2022/06/11 12:45:49;;;;;;;8.13;6.43;;;29.50;99.90;;;;;;5049004;28;20388;-56
2022/06/11 12:48:17;;;;;;;7.40;6.30;;;29.60;99.90;;;;;;5048376;28;20432;-56
2022/06/11 12:51:03;;;;;;;8.88;5.28;;;29.40;99.90;;;;;;5048846;28;20385;-56
2022/06/11 12:53:40;;;;;;;8.30;5.50;;;29.50;99.90;;;;;;5049003;28;20417;-56
2022/06/11 12:56:24;;;;;;;7.50;5.28;;;29.80;99.90;;;;;;5048067;28;20395;-56
2022/06/11 12:59:02;;;;;;;7.60;5.90;;;30.00;99.90;;;;;;5048236;28;20378;-56
2022/06/11 13:01:52;;;;;;;8.13;5.47;;;30.00;99.90;;;;;;5048679;28;20386;-56
2022/06/11 13:04:31;;;;;;;9.15;5.90;;;30.10;99.90;;;;;;5048728;28;20464;-56
2022/06/11 13:07:11;;;;;;;7.90;5.93;;;30.10;99.90;;;;;;5047927;28;20400;-56
2022/06/11 13:09:47;;;;;;;10.10;5.75;;;30.00;99.90;;;;;;5048355;28;20847;-56
2022/06/11 13:12:19;;;;;;;8.18;5.53;;;30.20;99.90;;;;;;5048452;28;20440;-56